Hlavní strana
METAR-TAF:

METAR-TAF

Letiště :

Asheboro Regional Airport

Asheboro, Severní Karolína, Spojené státy americké

zeměpisná šířka: 35-39-14N, zeměpisná délka: 079-53-42W, výška: 205 m

Aktuální stav počasí

Zpráva byla vytvořena před 21 minutami, v 01:15 UTC
Bezvětří
Teplota 21°C
Vlhkost vzduchu 100%
Tlak 1018 hPa
Viditelnost: 16.1 km
Oblačno až skoro zataženo ve výšce 600 ft

METAR: KHBI 300115Z AUTO 00000KT 10SM BKN006 21/21 A3007 RMK AO2 T02090209

Čas: 21:36 (01:36 UTC)


TAF: chybějící

Stav a předpovědi počasí z více než 4 000 letišť (zprávy METAR a TAF).

Červené a žluté tečky na mapě představují dostupné meteorologické stanice.

Když kurzor umístíte na tečku, zobrazí se název stanice.

Pak kliknutím zobrazíte stav a předpověď počasí.

Chcete-li změnit mapu, kliknutím na zelené tlačítko se znaménkem +mapu přiblížíte, kliknutím na zelené tlačítko se znaménkem – mapu oddálíte a kliknutím na zelené šipky přejdete na sousední mapy.


METAR-TAF: